Time;durP1;ratioP1;P1;durP2;ratioP2;P2;SDS_P1;SDS_P2;PMS_P1;PMS_P2;Temp;Humidity;BMP_temperature;BMP_pressure;BME280_temperature;BME280_humidity;BME280_pressure;Samples;Min_cycle;Max_cycle;Signal;HPM_P1;HPM_P2
2023/11/17 00:01:45;;;;;;;2.97;2.35;;;9.80;68.50;;;;;;5060695;28;20098;-74
2023/11/17 00:04:14;;;;;;;2.53;2.33;;;9.80;68.70;;;;;;5060520;28;20170;-74
2023/11/17 00:06:41;;;;;;;3.35;2.40;;;9.70;68.30;;;;;;5058941;28;20058;-75
2023/11/17 00:09:10;;;;;;;4.18;3.13;;;9.70;68.40;;;;;;5059676;28;20040;-75
2023/11/17 00:11:40;;;;;;;2.90;2.60;;;9.60;68.20;;;;;;5049996;28;20480;-74
2023/11/17 00:14:06;;;;;;;2.63;2.30;;;9.60;68.20;;;;;;5057601;28;20028;-74
2023/11/17 00:16:33;;;;;;;3.90;2.72;;;9.60;68.30;;;;;;5058588;28;20032;-75
2023/11/17 00:19:01;;;;;;;3.05;2.63;;;9.60;68.30;;;;;;5054584;28;20296;-74
2023/11/17 00:21:27;;;;;;;3.38;2.42;;;9.50;68.10;;;;;;5058967;28;20646;-72
2023/11/17 00:23:54;;;;;;;3.90;2.63;;;9.60;68.40;;;;;;5066134;28;20043;-73
2023/11/17 00:26:23;;;;;;;4.40;2.50;;;9.50;68.20;;;;;;5054566;28;20051;-73
2023/11/17 00:28:53;;;;;;;5.20;2.92;;;9.50;68.20;;;;;;5057634;28;20095;-73
2023/11/17 00:31:21;;;;;;;3.88;2.28;;;9.50;68.30;;;;;;5050952;28;20032;-74
2023/11/17 00:33:48;;;;;;;5.75;2.90;;;9.40;68.10;;;;;;5059577;28;20432;-73
2023/11/17 00:36:15;;;;;;;4.43;2.53;;;9.40;68.10;;;;;;5062468;28;20487;-73
2023/11/17 00:38:41;;;;;;;3.90;2.47;;;9.40;68.20;;;;;;5062525;28;20115;-73
2023/11/17 00:41:09;;;;;;;4.38;2.83;;;9.40;68.20;;;;;;5062773;28;20057;-74
2023/11/17 00:43:36;;;;;;;3.42;2.88;;;9.30;68.00;;;;;;5058910;28;20560;-73
2023/11/17 00:46:03;;;;;;;3.67;2.97;;;9.30;68.00;;;;;;5062918;28;20029;-73
2023/11/17 00:48:30;;;;;;;5.47;2.78;;;9.30;68.10;;;;;;5061558;28;20040;-73
2023/11/17 00:50:59;;;;;;;3.30;2.65;;;9.20;67.90;;;;;;5065689;28;20550;-73
2023/11/17 00:53:26;;;;;;;6.32;3.08;;;9.20;68.00;;;;;;5066422;28;20425;-73
2023/11/17 00:55:52;;;;;;;3.88;2.97;;;9.10;67.80;;;;;;5061946;28;20107;-74
2023/11/17 00:58:19;;;;;;;4.82;3.13;;;9.10;67.80;;;;;;5061587;28;20032;-73
2023/11/17 01:00:46;;;;;;;5.20;2.95;;;9.10;67.80;;;;;;5059354;28;20087;-73
2023/11/17 01:03:12;;;;;;;3.13;2.80;;;9.10;67.90;;;;;;5064296;28;20461;-73
2023/11/17 01:05:39;;;;;;;6.03;2.80;;;9.00;67.70;;;;;;5065808;28;20375;-73
2023/11/17 01:08:06;;;;;;;5.18;3.17;;;9.00;67.80;;;;;;5066570;28;20043;-73
2023/11/17 01:10:35;;;;;;;4.53;3.00;;;9.00;67.80;;;;;;5065762;28;20066;-73
2023/11/17 01:13:03;;;;;;;4.43;3.00;;;8.90;67.60;;;;;;5067191;28;20411;-75
2023/11/17 01:15:34;;;;;;;3.08;2.47;;;8.90;67.60;;;;;;5068902;28;20028;-75
2023/11/17 01:18:04;;;;;;;5.32;2.97;;;8.90;67.60;;;;;;5066736;28;20028;-75
2023/11/17 01:20:34;;;;;;;6.72;3.25;;;8.80;67.50;;;;;;5062893;28;20044;-76
2023/11/17 01:23:01;;;;;;;4.75;2.88;;;8.80;67.50;;;;;;5062053;28;20480;-75
2023/11/17 01:25:34;;;;;;;3.80;2.72;;;8.80;67.50;;;;;;5061667;28;20755;-75
2023/11/17 01:28:02;;;;;;;4.20;3.20;;;8.70;67.30;;;;;;5066527;28;20499;-75
2023/11/17 01:30:30;;;;;;;3.35;2.72;;;8.60;67.20;;;;;;5048909;28;20025;-76
2023/11/17 01:32:57;;;;;;;3.20;2.67;;;8.60;67.20;;;;;;5060891;28;20576;-75
2023/11/17 01:35:24;;;;;;;3.05;2.75;;;8.60;67.30;;;;;;5055584;28;20390;-75
2023/11/17 01:37:51;;;;;;;3.42;2.88;;;8.60;67.30;;;;;;5062132;28;20036;-75
2023/11/17 01:40:22;;;;;;;3.90;3.03;;;8.50;67.20;;;;;;5061995;28;20409;-75
2023/11/17 01:42:48;;;;;;;4.18;2.80;;;8.50;67.20;;;;;;5054041;28;20113;-75
2023/11/17 01:45:15;;;;;;;5.00;2.95;;;8.50;67.20;;;;;;5057382;28;20062;-75
2023/11/17 01:47:42;;;;;;;4.50;2.80;;;8.40;67.00;;;;;;5061321;28;20053;-75
2023/11/17 01:50:12;;;;;;;5.80;2.38;;;8.40;67.00;;;;;;5062962;28;20055;-75
2023/11/17 01:52:40;;;;;;;3.55;2.38;;;8.30;66.90;;;;;;5060368;28;20058;-75
2023/11/17 01:55:08;;;;;;;2.95;2.65;;;8.30;66.90;;;;;;5057919;28;20017;-75
2023/11/17 01:57:37;;;;;;;3.00;2.70;;;8.30;66.90;;;;;;5077993;28;20028;-75
2023/11/17 02:00:13;;;;;;;2.72;2.42;;;8.20;67.30;;;;;;5045679;28;20047;-75
2023/11/17 02:02:51;;;;;;;2.50;2.25;;;8.20;66.80;;;;;;5062922;28;20226;-75
2023/11/17 02:05:25;;;;;;;2.47;2.05;;;8.20;66.80;;;;;;5061180;28;20186;-75
2023/11/17 02:08:39;;;;;;;2.45;1.90;;;8.20;66.90;;;;;;5054133;28;20484;-75
2023/11/17 02:11:37;;;;;;;2.33;2.13;;;8.20;66.90;;;;;;5056296;28;20087;-76
2023/11/17 02:14:09;;;;;;;2.10;1.90;;;8.10;66.70;;;;;;5060241;28;20063;-75
2023/11/17 02:16:38;;;;;;;1.90;1.80;;;8.10;66.70;;;;;;5058229;28;20396;-75
2023/11/17 02:19:15;;;;;;;2.13;1.90;;;8.10;66.80;;;;;;5063957;28;20119;-75
2023/11/17 02:21:44;;;;;;;2.65;1.98;;;8.10;66.80;;;;;;5076596;28;20031;-75
2023/11/17 02:24:13;;;;;;;2.30;1.67;;;8.10;66.90;;;;;;5062326;28;20035;-75
2023/11/17 02:27:19;;;;;;;1.92;1.63;;;8.10;66.90;;;;;;5060941;28;20028;-75
2023/11/17 02:29:47;;;;;;;2.38;2.17;;;8.10;66.90;;;;;;5051507;28;20032;-75
2023/11/17 02:32:16;;;;;;;1.77;1.67;;;8.10;66.90;;;;;;5057875;28;20028;-75
2023/11/17 02:34:44;;;;;;;1.73;1.63;;;8.10;66.90;;;;;;5060031;28;20310;-75
2023/11/17 02:37:11;;;;;;;1.80;1.70;;;8.10;66.90;;;;;;5072498;28;20028;-75
2023/11/17 02:39:38;;;;;;;3.58;1.60;;;8.10;67.00;;;;;;5060951;28;20048;-75
2023/11/17 02:42:10;;;;;;;1.70;1.58;;;8.10;67.00;;;;;;5056469;28;20036;-75
2023/11/17 02:44:39;;;;;;;1.85;1.73;;;8.10;67.10;;;;;;5056302;28;20119;-75
2023/11/17 02:47:08;;;;;;;3.40;2.30;;;8.00;66.90;;;;;;5059502;28;20115;-75
2023/11/17 02:49:41;;;;;;;2.10;1.85;;;8.00;66.90;;;;;;5064136;28;20143;-75
2023/11/17 02:52:16;;;;;;;2.33;1.80;;;8.00;66.90;;;;;;5065181;28;20043;-75
2023/11/17 02:54:44;;;;;;;2.80;1.75;;;8.00;67.00;;;;;;5064064;28;20472;-75
2023/11/17 02:57:14;;;;;;;2.20;1.63;;;8.00;66.90;;;;;;5058487;28;20540;-74
2023/11/17 02:59:41;;;;;;;2.60;2.05;;;8.00;67.00;;;;;;5060923;28;20538;-74
2023/11/17 03:02:07;;;;;;;3.55;1.90;;;8.00;67.00;;;;;;5065174;28;20025;-74
2023/11/17 03:04:33;;;;;;;1.85;1.65;;;7.90;66.80;;;;;;5032834;28;20480;-75
2023/11/17 03:07:01;;;;;;;2.75;2.03;;;7.90;66.80;;;;;;5050957;28;20512;-74
2023/11/17 03:09:29;;;;;;;2.65;1.83;;;7.90;66.80;;;;;;5054240;28;20096;-74
2023/11/17 03:12:01;;;;;;;1.98;1.83;;;7.90;66.80;;;;;;5061349;28;20057;-74
2023/11/17 03:14:28;;;;;;;2.15;1.60;;;7.90;66.90;;;;;;5067435;28;20106;-74
2023/11/17 03:16:58;;;;;;;4.85;2.00;;;7.80;67.20;;;;;;5071218;28;20037;-75
2023/11/17 03:19:30;;;;;;;4.53;1.80;;;7.80;66.70;;;;;;5062831;28;20036;-74
2023/11/17 03:21:57;;;;;;;2.28;1.75;;;7.80;66.80;;;;;;5066125;28;20083;-74
2023/11/17 03:24:25;;;;;;;1.83;1.73;;;7.70;66.60;;;;;;5065190;28;20036;-72
2023/11/17 03:26:55;;;;;;;4.05;2.13;;;7.80;66.80;;;;;;5064155;28;20032;-75
2023/11/17 03:29:23;;;;;;;2.42;1.75;;;7.70;66.70;;;;;;5070000;28;20028;-75
2023/11/17 03:31:54;;;;;;;2.28;1.45;;;7.70;66.70;;;;;;5059949;28;20032;-75
2023/11/17 03:34:31;;;;;;;1.90;1.70;;;7.70;66.70;;;;;;5071687;28;20069;-75
2023/11/17 03:37:02;;;;;;;2.58;2.13;;;7.60;66.60;;;;;;5069715;28;20036;-75
2023/11/17 03:39:30;;;;;;;2.30;1.65;;;7.60;66.60;;;;;;5064138;28;20032;-75
2023/11/17 03:41:59;;;;;;;2.05;1.88;;;7.60;66.60;;;;;;5063815;28;20430;-75
2023/11/17 03:44:25;;;;;;;2.47;1.75;;;7.60;66.70;;;;;;5063878;28;20071;-75
2023/11/17 03:46:51;;;;;;;2.55;1.70;;;7.50;66.50;;;;;;5067246;28;20044;-75
2023/11/17 03:49:20;;;;;;;1.98;1.73;;;7.50;66.50;;;;;;5062947;28;20032;-75
2023/11/17 03:51:51;;;;;;;1.92;1.60;;;7.50;66.50;;;;;;5060960;28;20017;-75
2023/11/17 03:54:27;;;;;;;2.22;1.27;;;7.40;66.40;;;;;;5062960;28;20028;-75
2023/11/17 03:56:56;;;;;;;1.70;1.40;;;7.40;66.40;;;;;;5064529;28;20040;-75
2023/11/17 03:59:23;;;;;;;2.67;1.65;;;7.40;66.40;;;;;;5063167;28;20024;-74
2023/11/17 04:01:49;;;;;;;1.23;1.13;;;7.30;66.20;;;;;;5062736;28;20056;-75
2023/11/17 04:04:17;;;;;;;2.03;1.27;;;7.30;66.20;;;;;;5057207;28;20741;-74
2023/11/17 04:06:44;;;;;;;1.45;1.35;;;7.30;66.70;;;;;;5060350;28;20403;-74
2023/11/17 04:09:15;;;;;;;2.03;1.58;;;7.20;66.10;;;;;;5063656;28;20115;-74
2023/11/17 04:11:45;;;;;;;1.92;1.58;;;7.20;66.00;;;;;;5061793;28;20032;-74
2023/11/17 04:14:13;;;;;;;1.33;1.17;;;7.20;66.00;;;;;;5046672;28;20081;-75
2023/11/17 04:16:39;;;;;;;1.48;1.38;;;7.20;66.00;;;;;;5062670;28;20032;-75
2023/11/17 04:19:06;;;;;;;1.58;1.38;;;7.20;66.00;;;;;;5045750;28;20040;-75
2023/11/17 04:21:36;;;;;;;1.40;1.20;;;7.20;66.00;;;;;;5063034;28;20043;-74
2023/11/17 04:24:02;;;;;;;1.83;1.20;;;7.10;65.90;;;;;;5058881;28;20052;-74
2023/11/17 04:26:29;;;;;;;1.65;1.45;;;7.10;65.80;;;;;;5063372;28;20036;-75
2023/11/17 04:28:55;;;;;;;2.60;1.40;;;7.10;65.80;;;;;;5060787;28;20127;-75
2023/11/17 04:31:22;;;;;;;1.45;1.17;;;7.00;65.70;;;;;;5058433;28;20082;-75
2023/11/17 04:33:50;;;;;;;3.13;1.40;;;7.00;65.70;;;;;;5061400;28;20032;-75
2023/11/17 04:36:17;;;;;;;1.98;1.75;;;7.00;65.70;;;;;;5057563;28;20085;-76
2023/11/17 04:38:43;;;;;;;3.28;1.30;;;7.00;65.70;;;;;;5059839;28;20035;-74
2023/11/17 04:41:12;;;;;;;1.70;1.42;;;7.00;65.70;;;;;;5063195;28;20570;-74
2023/11/17 04:43:39;;;;;;;2.33;1.25;;;6.90;65.50;;;;;;5062250;28;21020;-75
2023/11/17 04:46:06;;;;;;;1.35;1.25;;;6.90;65.50;;;;;;5063372;28;20422;-74
2023/11/17 04:48:32;;;;;;;1.45;1.30;;;6.90;65.50;;;;;;5055570;28;20052;-74
2023/11/17 04:50:59;;;;;;;3.53;1.50;;;6.80;65.30;;;;;;5059757;28;20029;-74
2023/11/17 04:53:25;;;;;;;1.67;1.25;;;6.90;65.50;;;;;;5064644;28;20044;-73
2023/11/17 04:55:52;;;;;;;3.60;1.60;;;6.80;65.30;;;;;;5064418;28;20020;-74
2023/11/17 04:58:18;;;;;;;1.83;1.20;;;6.70;65.10;;;;;;5064809;28;20486;-74
2023/11/17 05:00:46;;;;;;;1.75;1.42;;;6.70;65.20;;;;;;5075597;28;20032;-74
2023/11/17 05:03:11;;;;;;;1.95;1.60;;;6.70;65.10;;;;;;5064458;28;20496;-74
2023/11/17 05:05:37;;;;;;;1.20;1.10;;;6.70;65.10;;;;;;5057104;28;20056;-75
2023/11/17 05:08:03;;;;;;;1.70;1.60;;;6.70;65.10;;;;;;5064992;28;20036;-75
2023/11/17 05:10:29;;;;;;;2.97;1.60;;;6.70;65.10;;;;;;5064715;28;20028;-74
2023/11/17 05:12:55;;;;;;;1.65;1.20;;;6.60;65.00;;;;;;5062315;28;20552;-74
2023/11/17 05:15:22;;;;;;;2.58;1.52;;;6.60;65.00;;;;;;5065184;28;20368;-74
2023/11/17 05:17:48;;;;;;;6.60;1.83;;;6.60;65.10;;;;;;5063586;28;20032;-74
2023/11/17 05:20:20;;;;;;;1.77;1.50;;;6.60;65.10;;;;;;5063259;28;20036;-74
2023/11/17 05:22:47;;;;;;;3.08;1.65;;;6.50;64.90;;;;;;5063111;28;20064;-73
2023/11/17 05:25:15;;;;;;;2.63;1.90;;;6.50;64.90;;;;;;5061871;28;20036;-74
2023/11/17 05:27:42;;;;;;;2.28;1.42;;;6.50;65.00;;;;;;5065330;28;20044;-74
2023/11/17 05:30:09;;;;;;;2.53;2.33;;;6.40;64.70;;;;;;5062991;28;20388;-74
2023/11/17 05:32:36;;;;;;;1.92;1.52;;;6.50;65.00;;;;;;5058587;28;20136;-74
2023/11/17 05:35:10;;;;;;;2.10;1.75;;;6.40;64.80;;;;;;5061649;28;20078;-74
2023/11/17 05:37:37;;;;;;;3.83;2.08;;;6.40;64.80;;;;;;5060526;28;20039;-74
2023/11/17 05:40:05;;;;;;;2.53;1.88;;;6.40;64.80;;;;;;5067676;28;20079;-75
2023/11/17 05:42:32;;;;;;;2.28;1.63;;;6.40;64.80;;;;;;5064741;28;20279;-75
2023/11/17 05:44:58;;;;;;;1.95;1.70;;;6.30;64.60;;;;;;5066085;28;20050;-74
2023/11/17 05:47:24;;;;;;;3.33;1.83;;;6.30;64.60;;;;;;5062248;28;20040;-74
2023/11/17 05:49:52;;;;;;;2.00;1.80;;;6.30;64.60;;;;;;5056059;28;20036;-74
2023/11/17 05:52:18;;;;;;;1.83;1.73;;;6.30;64.70;;;;;;5067143;28;20098;-74
2023/11/17 05:54:46;;;;;;;2.85;2.15;;;6.30;64.70;;;;;;5063495;28;20090;-74
2023/11/17 05:57:19;;;;;;;3.20;2.15;;;6.20;64.50;;;;;;5064151;28;20467;-74
2023/11/17 05:59:49;;;;;;;2.53;1.98;;;6.20;64.50;;;;;;5060072;28;20032;-75
2023/11/17 06:02:15;;;;;;;2.20;1.60;;;6.20;64.50;;;;;;5056469;28;20117;-74
2023/11/17 06:04:44;;;;;;;2.45;1.75;;;6.20;64.50;;;;;;5059904;28;20487;-75
2023/11/17 06:07:10;;;;;;;2.60;1.92;;;6.10;64.30;;;;;;5061236;28;20036;-73
2023/11/17 06:09:37;;;;;;;2.15;1.73;;;6.10;64.40;;;;;;5062158;28;20032;-74
2023/11/17 06:12:05;;;;;;;3.50;1.88;;;6.10;64.40;;;;;;5046630;28;20028;-73
2023/11/17 06:14:31;;;;;;;3.33;2.05;;;6.10;64.40;;;;;;5058533;28;20140;-73
2023/11/17 06:16:57;;;;;;;3.67;1.90;;;6.10;64.40;;;;;;5062755;28;20384;-73
2023/11/17 06:19:24;;;;;;;2.40;2.20;;;6.10;64.40;;;;;;5061472;28;20044;-74
2023/11/17 06:21:50;;;;;;;3.83;2.10;;;6.00;64.20;;;;;;5041064;28;20029;-73
2023/11/17 06:24:18;;;;;;;4.18;2.15;;;6.00;64.20;;;;;;5060189;28;20079;-75
2023/11/17 06:26:45;;;;;;;2.67;1.80;;;6.00;64.30;;;;;;5057187;28;20078;-74
2023/11/17 06:29:15;;;;;;;2.10;1.70;;;6.00;64.30;;;;;;5061933;28;20542;-74
2023/11/17 06:31:42;;;;;;;3.50;1.98;;;6.00;64.30;;;;;;5054433;28;20410;-74
2023/11/17 06:34:09;;;;;;;2.47;1.80;;;6.00;64.30;;;;;;5074892;28;20032;-75
2023/11/17 06:36:39;;;;;;;2.47;2.00;;;6.00;64.30;;;;;;5038484;28;20327;-75
2023/11/17 06:39:14;;;;;;;4.72;2.03;;;6.00;64.40;;;;;;5056552;28;20044;-74
2023/11/17 06:41:47;;;;;;;3.00;2.30;;;5.90;64.20;;;;;;5059770;28;20036;-76
2023/11/17 06:44:17;;;;;;;4.50;2.47;;;5.90;64.20;;;;;;5034349;28;20396;-75
2023/11/17 06:46:46;;;;;;;4.40;2.00;;;5.90;64.20;;;;;;5054674;28;20119;-75
2023/11/17 06:49:14;;;;;;;3.72;2.40;;;5.90;64.30;;;;;;5056896;28;20036;-75
2023/11/17 06:51:44;;;;;;;2.90;2.38;;;5.90;64.30;;;;;;5062932;28;20587;-76
2023/11/17 06:54:13;;;;;;;2.67;2.42;;;5.90;64.30;;;;;;5066039;28;20046;-75
2023/11/17 06:56:42;;;;;;;4.25;2.42;;;5.90;64.30;;;;;;5059461;28;20032;-75
2023/11/17 06:59:18;;;;;;;2.88;2.20;;;5.90;64.40;;;;;;5063835;28;20040;-75
2023/11/17 07:01:51;;;;;;;4.15;2.33;;;5.90;64.50;;;;;;5054277;28;20451;-75
2023/11/17 07:04:19;;;;;;;3.50;2.22;;;5.90;64.50;;;;;;5051700;28;20043;-74
2023/11/17 07:06:45;;;;;;;3.33;2.50;;;5.90;64.50;;;;;;5059752;28;20032;-75
2023/11/17 07:09:19;;;;;;;3.17;2.10;;;5.90;64.60;;;;;;5058566;28;20024;-75
2023/11/17 07:11:51;;;;;;;2.67;2.42;;;5.80;64.40;;;;;;5058755;28;20032;-74
2023/11/17 07:14:22;;;;;;;3.97;2.13;;;5.80;64.40;;;;;;5056420;28;20325;-75
2023/11/17 07:16:49;;;;;;;2.92;1.90;;;5.80;64.40;;;;;;5058893;28;20036;-75
2023/11/17 07:19:19;;;;;;;3.22;2.28;;;5.80;64.50;;;;;;5056115;28;20583;-74
2023/11/17 07:21:50;;;;;;;4.15;2.70;;;5.80;64.60;;;;;;5064386;28;20575;-75
2023/11/17 07:24:19;;;;;;;3.65;2.42;;;5.80;64.60;;;;;;5060957;28;20282;-74
2023/11/17 07:26:49;;;;;;;3.88;2.50;;;5.80;64.60;;;;;;5061289;28;20028;-75
2023/11/17 07:29:16;;;;;;;3.47;2.50;;;5.80;64.60;;;;;;5060617;28;20089;-76
2023/11/17 07:31:43;;;;;;;3.83;2.72;;;5.80;64.60;;;;;;5056515;28;20548;-75
2023/11/17 07:34:15;;;;;;;4.03;3.17;;;5.70;64.50;;;;;;5059284;28;20092;-76
2023/11/17 07:36:42;;;;;;;4.28;2.65;;;5.70;64.50;;;;;;5049907;28;20480;-77
2023/11/17 07:39:18;;;;;;;4.20;2.70;;;5.70;64.50;;;;;;5056201;28;20040;-77
2023/11/17 07:41:45;;;;;;;7.53;2.88;;;5.70;64.50;;;;;;5052978;28;20044;-76
2023/11/17 07:44:19;;;;;;;4.57;2.38;;;5.70;64.50;;;;;;5053000;28;20024;-76
2023/11/17 07:46:46;;;;;;;6.28;3.00;;;5.70;64.50;;;;;;5058303;28;20047;-76
2023/11/17 07:49:14;;;;;;;4.32;2.72;;;5.70;64.50;;;;;;5058502;28;20080;-75
2023/11/17 07:51:40;;;;;;;4.80;3.08;;;5.70;64.60;;;;;;5059774;28;20034;-76
2023/11/17 07:54:08;;;;;;;7.05;3.65;;;5.70;64.50;;;;;;5058611;28;20177;-76
2023/11/17 07:56:35;;;;;;;6.10;3.30;;;5.70;64.60;;;;;;5063836;28;20027;-77
2023/11/17 07:59:04;;;;;;;4.22;3.20;;;5.60;64.40;;;;;;5059948;28;20016;-76
2023/11/17 08:01:30;;;;;;;4.13;3.42;;;5.70;64.60;;;;;;5054701;28;20036;-76
2023/11/17 08:03:57;;;;;;;4.80;3.22;;;5.70;64.80;;;;;;5052144;28;20445;-76
2023/11/17 08:06:24;;;;;;;5.90;3.40;;;5.60;64.40;;;;;;5060059;28;20477;-76
2023/11/17 08:08:50;;;;;;;4.68;2.78;;;5.70;64.60;;;;;;5056871;28;20048;-76
2023/11/17 08:11:16;;;;;;;6.40;3.33;;;5.70;64.60;;;;;;5057249;28;20021;-76
2023/11/17 08:13:43;;;;;;;6.15;3.08;;;5.70;64.60;;;;;;5060411;28;20210;-76
2023/11/17 08:16:10;;;;;;;5.43;3.33;;;5.70;64.60;;;;;;5055097;28;20063;-76
2023/11/17 08:18:38;;;;;;;6.88;3.38;;;5.70;64.60;;;;;;5060875;28;20042;-77
2023/11/17 08:21:06;;;;;;;5.10;3.08;;;5.70;64.60;;;;;;5058662;28;20056;-76
2023/11/17 08:23:33;;;;;;;6.18;3.33;;;5.70;64.60;;;;;;5061710;28;20031;-76
2023/11/17 08:26:01;;;;;;;6.82;3.05;;;5.80;64.70;;;;;;5058882;28;20035;-77
2023/11/17 08:28:32;;;;;;;6.40;3.25;;;5.70;64.60;;;;;;5033203;28;20561;-76
2023/11/17 08:30:58;;;;;;;5.40;3.50;;;5.70;64.60;;;;;;5051603;28;20506;-78
2023/11/17 08:33:25;;;;;;;6.03;3.20;;;5.80;64.80;;;;;;5056733;28;20043;-79
2023/11/17 08:35:53;;;;;;;7.38;3.75;;;5.80;64.80;;;;;;5056324;28;20752;-78
2023/11/17 08:38:20;;;;;;;6.88;3.38;;;5.80;64.80;;;;;;5053701;28;20466;-77
2023/11/17 08:40:50;;;;;;;5.35;3.72;;;5.90;65.20;;;;;;5053953;28;20449;-78
2023/11/17 08:43:18;;;;;;;7.35;3.85;;;5.90;65.30;;;;;;5057191;28;20069;-77
2023/11/17 08:45:47;;;;;;;7.38;3.55;;;6.00;65.70;;;;;;5056322;28;20039;-79
2023/11/17 08:48:13;;;;;;;7.22;4.05;;;6.10;65.90;;;;;;5056353;28;20368;-78
2023/11/17 08:50:41;;;;;;;6.10;3.90;;;6.30;66.30;;;;;;5053135;28;20040;-78
2023/11/17 08:53:07;;;;;;;6.03;4.00;;;6.40;66.60;;;;;;5051296;28;20553;-78
2023/11/17 08:55:36;;;;;;;8.45;4.28;;;6.50;66.80;;;;;;5052983;28;20033;-78
2023/11/17 08:58:02;;;;;;;8.85;4.35;;;6.60;67.00;;;;;;5055340;28;20036;-79
2023/11/17 09:00:30;;;;;;;6.85;4.53;;;6.80;67.50;;;;;;5047615;28;20024;-79
2023/11/17 09:02:56;;;;;;;7.30;4.22;;;6.90;67.70;;;;;;5041042;28;20033;-79
2023/11/17 09:05:23;;;;;;;8.80;3.45;;;7.00;68.00;;;;;;5055885;28;20055;-79
2023/11/17 09:07:50;;;;;;;12.45;3.67;;;7.20;68.40;;;;;;5060507;28;20046;-78
2023/11/17 09:10:20;;;;;;;7.43;2.83;;;7.30;68.60;;;;;;5059336;28;20568;-78
2023/11/17 09:12:47;;;;;;;5.63;2.72;;;7.40;68.80;;;;;;5057577;28;20310;-77
2023/11/17 09:15:23;;;;;;;6.22;2.53;;;7.60;69.20;;;;;;5065022;28;20302;-78
2023/11/17 09:17:52;;;;;;;8.23;2.70;;;7.70;69.50;;;;;;5060840;28;20027;-78
2023/11/17 09:20:21;;;;;;;7.70;2.70;;;7.80;69.60;;;;;;5059310;28;20055;-78
2023/11/17 09:22:49;;;;;;;6.68;2.13;;;7.90;69.80;;;;;;5042023;28;20031;-78
2023/11/17 09:25:17;;;;;;;7.97;2.65;;;8.00;70.00;;;;;;5062057;28;20044;-78
2023/11/17 09:27:48;;;;;;;8.80;2.78;;;8.10;70.10;;;;;;5060847;28;20032;-79
2023/11/17 09:30:15;;;;;;;5.60;2.72;;;8.20;70.30;;;;;;5062043;28;20563;-78
2023/11/17 09:32:49;;;;;;;6.57;2.33;;;8.30;70.40;;;;;;5059550;28;20036;-78
2023/11/17 09:35:17;;;;;;;6.80;2.70;;;8.30;70.40;;;;;;5058041;28;20102;-78
2023/11/17 09:37:50;;;;;;;8.30;2.92;;;8.40;70.60;;;;;;5056019;28;20038;-77
2023/11/17 09:40:20;;;;;;;;;;;8.60;71.00;;;;;;5063721;28;20713;-78
2023/11/17 09:43:11;;;;;;;5.85;2.30;;;8.60;70.90;;;;;;5053944;28;19912;-78
2023/11/17 09:45:39;;;;;;;11.57;2.53;;;8.70;70.80;;;;;;5057647;28;20040;-79
2023/11/17 09:48:07;;;;;;;10.00;2.70;;;8.80;70.90;;;;;;5057820;28;20033;-79
2023/11/17 09:50:35;;;;;;;7.90;3.28;;;8.90;71.10;;;;;;5053493;28;20043;-79
2023/11/17 09:53:02;;;;;;;6.45;2.72;;;9.00;71.30;;;;;;5058231;28;20047;-79
2023/11/17 09:55:30;;;;;;;6.50;2.47;;;9.10;71.50;;;;;;5056289;28;20020;-79
2023/11/17 09:58:06;;;;;;;9.23;2.88;;;9.10;71.50;;;;;;5054702;28;20036;-79
2023/11/17 10:00:36;;;;;;;7.55;3.67;;;9.30;71.90;;;;;;5053652;28;20033;-79
2023/11/17 10:03:04;;;;;;;5.28;2.28;;;9.40;72.10;;;;;;5055580;28;20115;-78
2023/11/17 10:05:32;;;;;;;5.15;2.75;;;9.50;72.20;;;;;;5048500;28;20064;-79
2023/11/17 10:08:05;;;;;;;7.60;2.70;;;9.60;72.30;;;;;;5058721;28;20127;-79
2023/11/17 10:10:36;;;;;;;6.28;2.97;;;9.70;72.50;;;;;;5066845;28;20032;-79
2023/11/17 10:13:17;;;;;;;8.30;3.22;;;9.80;72.60;;;;;;5064793;28;20380;-79
2023/11/17 10:15:45;;;;;;;8.55;2.70;;;9.90;72.70;;;;;;5058218;28;20057;-80
2023/11/17 10:18:26;;;;;;;3.70;2.13;;;9.90;72.70;;;;;;5062926;28;20629;-79
2023/11/17 10:20:54;;;;;;;9.00;3.03;;;10.00;72.90;;;;;;5057287;28;20119;-79
2023/11/17 10:23:20;;;;;;;9.43;2.72;;;10.00;72.80;;;;;;5069930;28;20036;-79
2023/11/17 10:25:55;;;;;;;5.50;2.20;;;10.10;73.00;;;;;;5060687;28;20037;-78
2023/11/17 10:28:24;;;;;;;4.57;2.30;;;10.10;73.10;;;;;;5068628;28;20127;-79
2023/11/17 10:30:59;;;;;;;10.43;2.65;;;10.20;73.30;;;;;;5059620;28;20045;-79
2023/11/17 10:33:30;;;;;;;6.43;2.10;;;10.30;73.50;;;;;;5059515;28;20119;-79
2023/11/17 10:36:01;;;;;;;11.52;2.47;;;10.30;73.50;;;;;;5059800;28;20029;-79
2023/11/17 10:38:29;;;;;;;7.60;2.13;;;10.30;73.50;;;;;;5067400;28;20309;-79
2023/11/17 10:41:14;;;;;;;5.53;2.00;;;10.40;73.70;;;;;;5056264;28;20610;-78
2023/11/17 10:43:49;;;;;;;7.88;2.17;;;10.50;73.90;;;;;;5056989;28;20148;-78
2023/11/17 10:46:26;;;;;;;3.92;1.85;;;10.50;73.70;;;;;;5074117;28;20040;-78
2023/11/17 10:49:04;;;;;;;4.70;1.42;;;10.60;73.80;;;;;;5046099;28;20575;-78
2023/11/17 10:51:33;;;;;;;4.72;1.38;;;10.60;73.80;;;;;;5059098;28;20558;-78
2023/11/17 10:54:09;;;;;;;5.43;1.52;;;10.70;73.90;;;;;;5058129;28;20377;-79
2023/11/17 10:56:36;;;;;;;5.75;1.90;;;10.70;73.80;;;;;;5057746;28;20021;-78
2023/11/17 10:59:05;;;;;;;5.70;1.50;;;10.80;74.00;;;;;;5057194;28;20044;-78
2023/11/17 11:01:33;;;;;;;5.68;1.50;;;10.80;74.00;;;;;;5040725;28;20040;-77
2023/11/17 11:04:00;;;;;;;6.57;1.77;;;10.80;74.10;;;;;;5032844;28;20139;-78
2023/11/17 11:06:28;;;;;;;5.97;1.95;;;10.80;74.10;;;;;;5051431;28;20093;-78
2023/11/17 11:09:08;;;;;;;6.13;1.67;;;10.80;74.00;;;;;;5057636;28;20147;-81
2023/11/17 11:11:35;;;;;;;5.88;2.42;;;10.80;74.10;;;;;;5059915;28;20451;-79
2023/11/17 11:14:03;;;;;;;3.83;1.38;;;10.90;74.20;;;;;;5063167;28;20029;-78
2023/11/17 11:16:34;;;;;;;5.60;1.40;;;10.90;74.20;;;;;;5064016;28;20055;-81
2023/11/17 11:19:00;;;;;;;5.70;1.63;;;11.00;74.40;;;;;;5056538;28;20031;-80
2023/11/17 11:21:33;;;;;;;4.55;1.27;;;11.00;74.90;;;;;;5057193;28;20112;-76
2023/11/17 11:24:00;;;;;;;5.18;1.70;;;11.10;74.60;;;;;;5058957;28;20035;-78
2023/11/17 11:26:28;;;;;;;3.10;1.10;;;11.10;74.80;;;;;;5063355;28;20091;-78
2023/11/17 11:28:55;;;;;;;4.47;1.58;;;11.30;75.20;;;;;;5057472;28;20076;-79
2023/11/17 11:31:23;;;;;;;7.45;1.73;;;11.60;75.50;;;;;;5053840;28;20024;-77
2023/11/17 11:33:50;;;;;;;7.45;1.83;;;11.80;75.30;;;;;;5054053;28;20056;-78
2023/11/17 11:36:19;;;;;;;2.65;1.15;;;12.00;75.10;;;;;;5062939;28;20036;-77
2023/11/17 11:38:49;;;;;;;2.92;0.95;;;12.10;74.80;;;;;;5053219;28;20047;-77
2023/11/17 11:41:22;;;;;;;5.85;1.70;;;12.20;74.90;;;;;;5060644;28;20379;-76
2023/11/17 11:43:49;;;;;;;3.43;1.30;;;12.40;75.00;;;;;;5052598;28;21315;-77
2023/11/17 11:46:17;;;;;;;6.13;1.02;;;12.60;75.10;;;;;;5057537;28;20265;-75
2023/11/17 11:48:49;;;;;;;5.28;1.17;;;12.80;75.00;;;;;;5059893;28;20102;-76
2023/11/17 11:51:17;;;;;;;1.98;0.90;;;13.00;74.90;;;;;;5056023;28;20645;-77
2023/11/17 11:53:56;;;;;;;2.85;1.05;;;13.20;74.70;;;;;;5053585;28;20863;-75
2023/11/17 11:56:49;;;;;;;5.65;1.00;;;13.40;74.50;;;;;;5055793;28;20317;-75
2023/11/17 11:59:15;;;;;;;4.17;1.03;;;13.70;74.50;;;;;;5045084;28;20369;-75
2023/11/17 12:01:43;;;;;;;4.70;1.20;;;13.90;74.30;;;;;;5051094;28;20032;-74
2023/11/17 12:04:10;;;;;;;4.38;1.10;;;14.10;74.20;;;;;;5048044;28;20035;-77
2023/11/17 12:06:40;;;;;;;5.70;2.05;;;14.30;74.00;;;;;;5088194;28;20029;-77
2023/11/17 12:09:08;;;;;;;3.92;1.38;;;14.40;73.60;;;;;;5056473;28;20053;-76
2023/11/17 12:11:44;;;;;;;3.67;1.25;;;14.40;73.50;;;;;;5053820;28;20039;-77
2023/11/17 12:14:15;;;;;;;2.83;0.95;;;14.50;73.10;;;;;;5070101;28;20028;-77
2023/11/17 12:16:55;;;;;;;3.60;1.20;;;14.50;73.00;;;;;;5062607;28;20045;-79
2023/11/17 12:19:27;;;;;;;2.47;0.80;;;14.40;72.70;;;;;;5056691;28;20102;-78
2023/11/17 12:21:53;;;;;;;3.35;1.50;;;14.40;72.80;;;;;;5057077;28;20365;-77
2023/11/17 12:24:23;;;;;;;4.60;1.13;;;14.30;72.60;;;;;;5064811;28;20048;-77
2023/11/17 12:26:53;;;;;;;4.00;1.38;;;14.30;72.70;;;;;;5048571;28;20040;-77
2023/11/17 12:29:31;;;;;;;3.67;0.68;;;14.30;72.60;;;;;;5060533;28;20052;-77
2023/11/17 12:31:59;;;;;;;2.53;0.80;;;14.30;72.60;;;;;;5054230;28;20311;-76
2023/11/17 12:34:27;;;;;;;6.28;1.45;;;14.20;72.50;;;;;;5052919;28;20203;-77
2023/11/17 12:36:56;;;;;;;7.75;1.73;;;14.10;72.40;;;;;;5061358;28;20236;-77
2023/11/17 12:39:37;;;;;;;3.97;0.90;;;14.10;72.40;;;;;;5062037;28;20028;-78
2023/11/17 12:42:05;;;;;;;3.58;1.27;;;14.10;72.30;;;;;;5050274;28;20035;-79
2023/11/17 12:44:33;;;;;;;4.30;0.80;;;14.10;72.40;;;;;;5039471;28;20044;-79
2023/11/17 12:46:59;;;;;;;5.55;1.65;;;14.10;72.40;;;;;;5052540;28;20032;-76
2023/11/17 12:49:26;;;;;;;3.80;0.68;;;14.00;72.20;;;;;;5059185;28;20044;-79
2023/11/17 12:52:02;;;;;;;3.20;0.77;;;14.00;72.10;;;;;;5056044;28;20476;-78
2023/11/17 12:54:30;;;;;;;4.05;1.30;;;14.00;72.10;;;;;;5049290;28;20032;-79
2023/11/17 12:56:59;;;;;;;3.50;1.10;;;14.00;72.00;;;;;;5055007;28;20024;-79
2023/11/17 12:59:29;;;;;;;3.38;0.93;;;14.00;72.00;;;;;;5054661;28;20032;-79
2023/11/17 13:01:55;;;;;;;4.30;0.95;;;14.10;72.10;;;;;;5053947;28;20044;-79
2023/11/17 13:04:25;;;;;;;4.53;1.23;;;14.10;72.00;;;;;;5050330;28;20044;-79
2023/11/17 13:06:51;;;;;;;2.05;0.88;;;14.10;71.90;;;;;;5056619;28;20211;-79